sensor_id;sensor_type;location;lat;lon;timestamp;temperature;humidity
54898;DHT22;40800;52.704;6.398;2023-06-22T00:00:27;17.50;99.90
54898;DHT22;40800;52.704;6.398;2023-06-22T00:02:53;17.50;99.90
54898;DHT22;40800;52.704;6.398;2023-06-22T00:05:18;17.50;99.90
54898;DHT22;40800;52.704;6.398;2023-06-22T00:07:44;17.50;99.90
54898;DHT22;40800;52.704;6.398;2023-06-22T00:10:09;17.20;99.90
54898;DHT22;40800;52.704;6.398;2023-06-22T00:12:35;17.10;99.90
54898;DHT22;40800;52.704;6.398;2023-06-22T00:15:01;17.00;99.90
54898;DHT22;40800;52.704;6.398;2023-06-22T00:17:26;17.00;99.90
54898;DHT22;40800;52.704;6.398;2023-06-22T00:19:52;17.00;99.90
54898;DHT22;40800;52.704;6.398;2023-06-22T00:22:19;17.00;99.90
54898;DHT22;40800;52.704;6.398;2023-06-22T00:24:54;16.90;99.90
54898;DHT22;40800;52.704;6.398;2023-06-22T00:27:19;17.20;99.90
54898;DHT22;40800;52.704;6.398;2023-06-22T00:29:45;17.10;99.90
54898;DHT22;40800;52.704;6.398;2023-06-22T00:32:10;17.20;99.90
54898;DHT22;40800;52.704;6.398;2023-06-22T00:34:36;17.20;99.90
54898;DHT22;40800;52.704;6.398;2023-06-22T00:37:02;17.30;99.90
54898;DHT22;40800;52.704;6.398;2023-06-22T00:39:27;17.00;99.90
54898;DHT22;40800;52.704;6.398;2023-06-22T00:41:53;17.00;99.90
54898;DHT22;40800;52.704;6.398;2023-06-22T00:44:18;17.10;99.90
54898;DHT22;40800;52.704;6.398;2023-06-22T00:46:44;17.10;99.90
54898;DHT22;40800;52.704;6.398;2023-06-22T00:49:10;17.10;99.90
54898;DHT22;40800;52.704;6.398;2023-06-22T00:51:35;17.10;99.90
54898;DHT22;40800;52.704;6.398;2023-06-22T00:54:04;17.10;99.90
54898;DHT22;40800;52.704;6.398;2023-06-22T00:56:30;17.10;99.90
54898;DHT22;40800;52.704;6.398;2023-06-22T00:58:58;16.90;99.90
54898;DHT22;40800;52.704;6.398;2023-06-22T01:01:25;16.90;99.90
54898;DHT22;40800;52.704;6.398;2023-06-22T01:03:51;16.90;99.90
54898;DHT22;40800;52.704;6.398;2023-06-22T01:06:21;16.90;99.90
54898;DHT22;40800;52.704;6.398;2023-06-22T01:09:00;16.90;99.90
54898;DHT22;40800;52.704;6.398;2023-06-22T01:11:50;16.80;99.90
54898;DHT22;40800;52.704;6.398;2023-06-22T01:14:50;16.90;99.90
54898;DHT22;40800;52.704;6.398;2023-06-22T01:17:19;16.80;99.90
54898;DHT22;40800;52.704;6.398;2023-06-22T01:19:48;16.70;99.90
54898;DHT22;40800;52.704;6.398;2023-06-22T01:22:24;16.50;99.90
54898;DHT22;40800;52.704;6.398;2023-06-22T01:25:07;16.70;99.90
54898;DHT22;40800;52.704;6.398;2023-06-22T01:30:07;16.70;99.90
54898;DHT22;40800;52.704;6.398;2023-06-22T01:32:37;16.40;99.90
54898;DHT22;40800;52.704;6.398;2023-06-22T01:35:05;16.40;99.90
54898;DHT22;40800;52.704;6.398;2023-06-22T01:37:33;16.40;99.90
54898;DHT22;40800;52.704;6.398;2023-06-22T01:40:00;16.60;99.90
54898;DHT22;40800;52.704;6.398;2023-06-22T01:42:26;16.50;99.90
54898;DHT22;40800;52.704;6.398;2023-06-22T01:44:53;16.30;99.90
54898;DHT22;40800;52.704;6.398;2023-06-22T01:47:20;16.40;99.90
54898;DHT22;40800;52.704;6.398;2023-06-22T01:49:47;16.30;99.90
54898;DHT22;40800;52.704;6.398;2023-06-22T01:52:13;16.30;99.90
54898;DHT22;40800;52.704;6.398;2023-06-22T01:54:39;16.30;99.90
54898;DHT22;40800;52.704;6.398;2023-06-22T01:57:05;16.70;99.90
54898;DHT22;40800;52.704;6.398;2023-06-22T01:59:35;16.80;99.90
54898;DHT22;40800;52.704;6.398;2023-06-22T02:02:06;16.70;99.90
54898;DHT22;40800;52.704;6.398;2023-06-22T02:04:38;16.40;99.90
54898;DHT22;40800;52.704;6.398;2023-06-22T02:07:10;16.30;99.90
54898;DHT22;40800;52.704;6.398;2023-06-22T02:09:38;16.30;99.90
54898;DHT22;40800;52.704;6.398;2023-06-22T02:12:08;16.30;99.90
54898;DHT22;40800;52.704;6.398;2023-06-22T02:14:36;16.50;99.90
54898;DHT22;40800;52.704;6.398;2023-06-22T02:17:03;16.70;99.90
54898;DHT22;40800;52.704;6.398;2023-06-22T02:19:35;16.40;99.90
54898;DHT22;40800;52.704;6.398;2023-06-22T02:22:01;16.50;99.90
54898;DHT22;40800;52.704;6.398;2023-06-22T02:24:27;16.40;99.90
54898;DHT22;40800;52.704;6.398;2023-06-22T02:27:00;16.70;99.90
54898;DHT22;40800;52.704;6.398;2023-06-22T02:29:26;16.80;99.90
54898;DHT22;40800;52.704;6.398;2023-06-22T02:31:53;16.40;99.90
54898;DHT22;40800;52.704;6.398;2023-06-22T02:34:18;16.40;99.90
54898;DHT22;40800;52.704;6.398;2023-06-22T02:36:48;16.30;99.90
54898;DHT22;40800;52.704;6.398;2023-06-22T02:39:24;16.30;99.90
54898;DHT22;40800;52.704;6.398;2023-06-22T02:41:50;16.60;99.90
54898;DHT22;40800;52.704;6.398;2023-06-22T02:44:16;16.20;99.90
54898;DHT22;40800;52.704;6.398;2023-06-22T02:46:42;16.50;99.90
54898;DHT22;40800;52.704;6.398;2023-06-22T02:49:08;16.20;99.90
54898;DHT22;40800;52.704;6.398;2023-06-22T02:51:34;16.10;99.90
54898;DHT22;40800;52.704;6.398;2023-06-22T02:54:00;16.10;99.90
54898;DHT22;40800;52.704;6.398;2023-06-22T02:56:26;16.40;99.90
54898;DHT22;40800;52.704;6.398;2023-06-22T02:58:52;16.50;99.90
54898;DHT22;40800;52.704;6.398;2023-06-22T03:01:17;16.10;99.90
54898;DHT22;40800;52.704;6.398;2023-06-22T03:03:49;16.00;99.90
54898;DHT22;40800;52.704;6.398;2023-06-22T03:06:15;16.40;99.90
54898;DHT22;40800;52.704;6.398;2023-06-22T03:08:41;15.80;99.90
54898;DHT22;40800;52.704;6.398;2023-06-22T03:11:07;15.90;99.90
54898;DHT22;40800;52.704;6.398;2023-06-22T03:13:33;16.20;99.90
54898;DHT22;40800;52.704;6.398;2023-06-22T03:15:59;16.10;99.90
54898;DHT22;40800;52.704;6.398;2023-06-22T03:18:24;16.20;99.90
54898;DHT22;40800;52.704;6.398;2023-06-22T03:20:50;15.80;99.90
54898;DHT22;40800;52.704;6.398;2023-06-22T03:23:15;16.40;99.90
54898;DHT22;40800;52.704;6.398;2023-06-22T03:25:42;16.10;99.90
54898;DHT22;40800;52.704;6.398;2023-06-22T03:28:10;15.90;99.90
54898;DHT22;40800;52.704;6.398;2023-06-22T03:30:36;16.30;99.90
54898;DHT22;40800;52.704;6.398;2023-06-22T03:33:01;16.00;99.90
54898;DHT22;40800;52.704;6.398;2023-06-22T03:35:27;16.10;99.90
54898;DHT22;40800;52.704;6.398;2023-06-22T03:37:53;16.80;99.90
54898;DHT22;40800;52.704;6.398;2023-06-22T03:40:19;16.20;99.90
54898;DHT22;40800;52.704;6.398;2023-06-22T03:42:45;16.30;99.90
54898;DHT22;40800;52.704;6.398;2023-06-22T03:45:11;16.10;99.90
54898;DHT22;40800;52.704;6.398;2023-06-22T03:47:36;16.20;99.90
54898;DHT22;40800;52.704;6.398;2023-06-22T03:50:02;16.10;99.90
54898;DHT22;40800;52.704;6.398;2023-06-22T03:52:29;16.10;99.90
54898;DHT22;40800;52.704;6.398;2023-06-22T03:54:55;16.60;99.90
54898;DHT22;40800;52.704;6.398;2023-06-22T03:57:21;16.50;99.90
54898;DHT22;40800;52.704;6.398;2023-06-22T03:59:46;16.30;99.90
54898;DHT22;40800;52.704;6.398;2023-06-22T04:02:12;16.10;99.90
54898;DHT22;40800;52.704;6.398;2023-06-22T04:04:37;16.00;99.90
54898;DHT22;40800;52.704;6.398;2023-06-22T04:07:04;16.00;99.90
54898;DHT22;40800;52.704;6.398;2023-06-22T04:09:30;16.40;99.90
54898;DHT22;40800;52.704;6.398;2023-06-22T04:11:56;16.10;99.90
54898;DHT22;40800;52.704;6.398;2023-06-22T04:14:21;16.40;99.90
54898;DHT22;40800;52.704;6.398;2023-06-22T04:16:47;16.50;99.90
54898;DHT22;40800;52.704;6.398;2023-06-22T04:19:13;16.20;99.90
54898;DHT22;40800;52.704;6.398;2023-06-22T04:21:42;16.50;99.90
54898;DHT22;40800;52.704;6.398;2023-06-22T04:24:09;16.50;99.90
54898;DHT22;40800;52.704;6.398;2023-06-22T04:26:35;16.50;99.90
54898;DHT22;40800;52.704;6.398;2023-06-22T04:29:03;16.20;99.90
54898;DHT22;40800;52.704;6.398;2023-06-22T04:31:34;16.20;99.90
54898;DHT22;40800;52.704;6.398;2023-06-22T04:34:02;16.50;99.90
54898;DHT22;40800;52.704;6.398;2023-06-22T04:36:39;16.30;99.90
54898;DHT22;40800;52.704;6.398;2023-06-22T04:39:10;16.40;99.90
54898;DHT22;40800;52.704;6.398;2023-06-22T04:41:37;16.50;99.90
54898;DHT22;40800;52.704;6.398;2023-06-22T04:44:15;16.30;99.90
54898;DHT22;40800;52.704;6.398;2023-06-22T04:46:58;16.90;99.90
54898;DHT22;40800;52.704;6.398;2023-06-22T04:49:29;16.80;99.90
54898;DHT22;40800;52.704;6.398;2023-06-22T04:52:08;16.30;99.90
54898;DHT22;40800;52.704;6.398;2023-06-22T04:54:35;16.90;99.90
54898;DHT22;40800;52.704;6.398;2023-06-22T04:57:03;16.80;99.90
54898;DHT22;40800;52.704;6.398;2023-06-22T04:59:30;16.40;99.90
54898;DHT22;40800;52.704;6.398;2023-06-22T05:02:00;16.90;99.90
54898;DHT22;40800;52.704;6.398;2023-06-22T05:04:27;16.80;99.90
54898;DHT22;40800;52.704;6.398;2023-06-22T05:06:57;17.10;99.90
54898;DHT22;40800;52.704;6.398;2023-06-22T05:09:23;17.20;99.90
54898;DHT22;40800;52.704;6.398;2023-06-22T05:11:50;17.20;99.90
54898;DHT22;40800;52.704;6.398;2023-06-22T05:14:16;17.20;99.90
54898;DHT22;40800;52.704;6.398;2023-06-22T05:16:42;17.10;99.90
54898;DHT22;40800;52.704;6.398;2023-06-22T05:19:08;17.40;99.90
54898;DHT22;40800;52.704;6.398;2023-06-22T05:21:34;17.20;99.90
54898;DHT22;40800;52.704;6.398;2023-06-22T05:23:59;17.40;99.90
54898;DHT22;40800;52.704;6.398;2023-06-22T05:26:31;17.00;99.90
54898;DHT22;40800;52.704;6.398;2023-06-22T05:28:58;17.80;99.90
54898;DHT22;40800;52.704;6.398;2023-06-22T05:31:23;17.80;99.90
54898;DHT22;40800;52.704;6.398;2023-06-22T05:33:52;17.90;99.90
54898;DHT22;40800;52.704;6.398;2023-06-22T05:36:18;17.50;99.90
54898;DHT22;40800;52.704;6.398;2023-06-22T05:38:47;17.70;99.90
54898;DHT22;40800;52.704;6.398;2023-06-22T05:41:12;18.00;99.90
54898;DHT22;40800;52.704;6.398;2023-06-22T05:43:39;17.90;99.90
54898;DHT22;40800;52.704;6.398;2023-06-22T05:46:05;17.80;99.90
54898;DHT22;40800;52.704;6.398;2023-06-22T05:48:31;17.80;99.90
54898;DHT22;40800;52.704;6.398;2023-06-22T05:50:57;18.50;99.90
54898;DHT22;40800;52.704;6.398;2023-06-22T05:53:22;18.30;99.90
54898;DHT22;40800;52.704;6.398;2023-06-22T05:55:48;18.10;99.90
54898;DHT22;40800;52.704;6.398;2023-06-22T05:58:14;18.10;99.90
54898;DHT22;40800;52.704;6.398;2023-06-22T06:00:40;18.10;99.90
54898;DHT22;40800;52.704;6.398;2023-06-22T06:03:10;18.40;99.90
54898;DHT22;40800;52.704;6.398;2023-06-22T06:05:36;18.90;99.90
54898;DHT22;40800;52.704;6.398;2023-06-22T06:08:03;18.40;99.90
54898;DHT22;40800;52.704;6.398;2023-06-22T06:10:30;18.40;99.90
54898;DHT22;40800;52.704;6.398;2023-06-22T06:12:56;18.60;99.90
54898;DHT22;40800;52.704;6.398;2023-06-22T06:15:22;19.10;99.90
54898;DHT22;40800;52.704;6.398;2023-06-22T06:17:49;18.60;99.90
54898;DHT22;40800;52.704;6.398;2023-06-22T06:20:15;18.80;99.90
54898;DHT22;40800;52.704;6.398;2023-06-22T06:22:41;19.30;99.90
54898;DHT22;40800;52.704;6.398;2023-06-22T06:25:08;19.00;99.90
54898;DHT22;40800;52.704;6.398;2023-06-22T06:27:34;19.40;99.90
54898;DHT22;40800;52.704;6.398;2023-06-22T06:29:59;19.60;99.90
54898;DHT22;40800;52.704;6.398;2023-06-22T06:32:25;19.30;99.90
54898;DHT22;40800;52.704;6.398;2023-06-22T06:34:50;19.70;99.90
54898;DHT22;40800;52.704;6.398;2023-06-22T06:37:17;19.50;99.90
54898;DHT22;40800;52.704;6.398;2023-06-22T06:39:44;19.60;99.90
54898;DHT22;40800;52.704;6.398;2023-06-22T06:42:09;19.70;99.90
54898;DHT22;40800;52.704;6.398;2023-06-22T06:44:36;20.10;99.90
54898;DHT22;40800;52.704;6.398;2023-06-22T06:47:04;20.10;99.90
54898;DHT22;40800;52.704;6.398;2023-06-22T06:49:29;20.00;99.90
54898;DHT22;40800;52.704;6.398;2023-06-22T06:51:55;20.00;99.90
54898;DHT22;40800;52.704;6.398;2023-06-22T06:54:21;20.00;99.90
54898;DHT22;40800;52.704;6.398;2023-06-22T06:56:47;20.20;99.90
54898;DHT22;40800;52.704;6.398;2023-06-22T06:59:14;20.40;99.90
54898;DHT22;40800;52.704;6.398;2023-06-22T07:01:41;20.30;99.90
54898;DHT22;40800;52.704;6.398;2023-06-22T07:04:07;20.40;99.90
54898;DHT22;40800;52.704;6.398;2023-06-22T07:06:33;20.60;99.90
54898;DHT22;40800;52.704;6.398;2023-06-22T07:08:59;20.60;99.90
54898;DHT22;40800;52.704;6.398;2023-06-22T07:11:25;20.80;99.90
54898;DHT22;40800;52.704;6.398;2023-06-22T07:13:51;20.90;99.90
54898;DHT22;40800;52.704;6.398;2023-06-22T07:16:16;21.00;99.90
54898;DHT22;40800;52.704;6.398;2023-06-22T07:18:42;21.00;99.90
54898;DHT22;40800;52.704;6.398;2023-06-22T07:21:07;21.20;99.90
54898;DHT22;40800;52.704;6.398;2023-06-22T07:23:33;21.20;99.90
54898;DHT22;40800;52.704;6.398;2023-06-22T07:25:59;21.40;99.90
54898;DHT22;40800;52.704;6.398;2023-06-22T07:28:28;21.60;99.90
54898;DHT22;40800;52.704;6.398;2023-06-22T07:30:56;21.80;99.90
54898;DHT22;40800;52.704;6.398;2023-06-22T07:33:22;22.10;99.90
54898;DHT22;40800;52.704;6.398;2023-06-22T07:35:48;22.20;99.90
54898;DHT22;40800;52.704;6.398;2023-06-22T07:38:13;22.30;99.90
54898;DHT22;40800;52.704;6.398;2023-06-22T07:40:40;22.20;99.90
54898;DHT22;40800;52.704;6.398;2023-06-22T07:43:07;22.30;99.90
54898;DHT22;40800;52.704;6.398;2023-06-22T07:45:32;22.30;99.90
54898;DHT22;40800;52.704;6.398;2023-06-22T07:48:00;22.50;99.90
54898;DHT22;40800;52.704;6.398;2023-06-22T07:50:26;22.60;99.90
54898;DHT22;40800;52.704;6.398;2023-06-22T07:52:52;22.90;99.90
54898;DHT22;40800;52.704;6.398;2023-06-22T07:55:18;23.20;99.90
54898;DHT22;40800;52.704;6.398;2023-06-22T07:57:46;23.10;99.90
54898;DHT22;40800;52.704;6.398;2023-06-22T08:00:12;23.10;99.90
54898;DHT22;40800;52.704;6.398;2023-06-22T08:02:42;23.30;99.90
54898;DHT22;40800;52.704;6.398;2023-06-22T08:05:09;23.60;99.90
54898;DHT22;40800;52.704;6.398;2023-06-22T08:07:35;23.60;99.90
54898;DHT22;40800;52.704;6.398;2023-06-22T08:10:03;23.60;99.90
54898;DHT22;40800;52.704;6.398;2023-06-22T08:12:28;23.60;99.90
54898;DHT22;40800;52.704;6.398;2023-06-22T08:14:54;23.80;99.90
54898;DHT22;40800;52.704;6.398;2023-06-22T08:17:20;23.80;99.90
54898;DHT22;40800;52.704;6.398;2023-06-22T08:19:45;24.00;99.90
54898;DHT22;40800;52.704;6.398;2023-06-22T08:22:11;24.10;99.90
54898;DHT22;40800;52.704;6.398;2023-06-22T08:24:36;24.20;99.90
54898;DHT22;40800;52.704;6.398;2023-06-22T08:27:02;24.30;99.90
54898;DHT22;40800;52.704;6.398;2023-06-22T08:29:28;24.50;99.90
54898;DHT22;40800;52.704;6.398;2023-06-22T08:31:53;24.50;99.90
54898;DHT22;40800;52.704;6.398;2023-06-22T08:34:19;24.70;99.90
54898;DHT22;40800;52.704;6.398;2023-06-22T08:36:47;24.80;99.90
54898;DHT22;40800;52.704;6.398;2023-06-22T08:39:17;25.00;99.90
54898;DHT22;40800;52.704;6.398;2023-06-22T08:41:43;25.20;99.90
54898;DHT22;40800;52.704;6.398;2023-06-22T08:44:08;25.50;23.80
54898;DHT22;40800;52.704;6.398;2023-06-22T08:46:34;25.50;1.00
54898;DHT22;40800;52.704;6.398;2023-06-22T08:48:59;25.50;1.00
54898;DHT22;40800;52.704;6.398;2023-06-22T08:51:25;25.50;99.90
54898;DHT22;40800;52.704;6.398;2023-06-22T08:53:51;25.70;1.00
54898;DHT22;40800;52.704;6.398;2023-06-22T08:56:16;25.80;1.00
54898;DHT22;40800;52.704;6.398;2023-06-22T08:58:42;25.90;1.00
54898;DHT22;40800;52.704;6.398;2023-06-22T09:01:07;26.10;50.70
54898;DHT22;40800;52.704;6.398;2023-06-22T09:03:33;26.40;1.00
54898;DHT22;40800;52.704;6.398;2023-06-22T09:06:01;26.40;99.90
54898;DHT22;40800;52.704;6.398;2023-06-22T09:08:27;26.40;48.00
54898;DHT22;40800;52.704;6.398;2023-06-22T09:10:52;26.40;99.90
54898;DHT22;40800;52.704;6.398;2023-06-22T09:13:18;26.50;1.00
54898;DHT22;40800;52.704;6.398;2023-06-22T09:15:44;26.60;99.90
54898;DHT22;40800;52.704;6.398;2023-06-22T09:18:13;26.50;99.90
54898;DHT22;40800;52.704;6.398;2023-06-22T09:20:39;26.60;99.90
54898;DHT22;40800;52.704;6.398;2023-06-22T09:23:05;26.70;99.90
54898;DHT22;40800;52.704;6.398;2023-06-22T09:25:30;26.80;99.90
54898;DHT22;40800;52.704;6.398;2023-06-22T09:27:56;26.90;1.00
54898;DHT22;40800;52.704;6.398;2023-06-22T09:30:22;27.10;99.90
54898;DHT22;40800;52.704;6.398;2023-06-22T09:32:47;27.30;99.90
54898;DHT22;40800;52.704;6.398;2023-06-22T09:35:13;27.40;99.90
54898;DHT22;40800;52.704;6.398;2023-06-22T09:37:39;27.50;28.80
54898;DHT22;40800;52.704;6.398;2023-06-22T09:40:06;27.60;84.00
54898;DHT22;40800;52.704;6.398;2023-06-22T09:42:36;27.70;1.00
54898;DHT22;40800;52.704;6.398;2023-06-22T09:45:02;27.80;99.90
54898;DHT22;40800;52.704;6.398;2023-06-22T09:47:29;27.80;99.90
54898;DHT22;40800;52.704;6.398;2023-06-22T09:49:55;27.90;99.90
54898;DHT22;40800;52.704;6.398;2023-06-22T09:52:21;27.90;99.90
54898;DHT22;40800;52.704;6.398;2023-06-22T09:54:47;28.10;99.90
54898;DHT22;40800;52.704;6.398;2023-06-22T09:57:13;28.10;99.90
54898;DHT22;40800;52.704;6.398;2023-06-22T09:59:39;28.00;68.20
54898;DHT22;40800;52.704;6.398;2023-06-22T10:02:08;27.90;59.20
54898;DHT22;40800;52.704;6.398;2023-06-22T10:04:34;27.70;99.90
54898;DHT22;40800;52.704;6.398;2023-06-22T10:07:00;27.70;99.90
54898;DHT22;40800;52.704;6.398;2023-06-22T10:09:26;28.00;66.20
54898;DHT22;40800;52.704;6.398;2023-06-22T10:11:52;28.10;46.40
54898;DHT22;40800;52.704;6.398;2023-06-22T10:14:18;28.20;16.70
54898;DHT22;40800;52.704;6.398;2023-06-22T10:16:43;28.30;1.00
54898;DHT22;40800;52.704;6.398;2023-06-22T10:19:09;28.30;1.00
54898;DHT22;40800;52.704;6.398;2023-06-22T10:21:35;28.50;1.00
54898;DHT22;40800;52.704;6.398;2023-06-22T10:24:01;28.60;1.00
54898;DHT22;40800;52.704;6.398;2023-06-22T10:26:32;28.60;1.00
54898;DHT22;40800;52.704;6.398;2023-06-22T10:28:58;28.40;1.00
54898;DHT22;40800;52.704;6.398;2023-06-22T10:31:24;28.50;1.00
54898;DHT22;40800;52.704;6.398;2023-06-22T10:33:49;28.50;99.90
54898;DHT22;40800;52.704;6.398;2023-06-22T10:36:15;28.40;1.00
54898;DHT22;40800;52.704;6.398;2023-06-22T10:38:41;28.50;99.90
54898;DHT22;40800;52.704;6.398;2023-06-22T10:41:06;28.60;99.90
54898;DHT22;40800;52.704;6.398;2023-06-22T10:43:32;28.60;99.90
54898;DHT22;40800;52.704;6.398;2023-06-22T10:45:58;28.70;99.90
54898;DHT22;40800;52.704;6.398;2023-06-22T10:48:23;28.60;99.90
54898;DHT22;40800;52.704;6.398;2023-06-22T10:50:49;28.50;99.90
54898;DHT22;40800;52.704;6.398;2023-06-22T10:53:14;28.40;99.90
54898;DHT22;40800;52.704;6.398;2023-06-22T10:55:40;28.20;99.90
54898;DHT22;40800;52.704;6.398;2023-06-22T10:58:06;28.30;99.90
54898;DHT22;40800;52.704;6.398;2023-06-22T11:00:31;28.20;99.90
54898;DHT22;40800;52.704;6.398;2023-06-22T11:02:57;28.00;99.90
54898;DHT22;40800;52.704;6.398;2023-06-22T11:05:23;28.10;99.90
54898;DHT22;40800;52.704;6.398;2023-06-22T11:07:49;28.20;1.00
54898;DHT22;40800;52.704;6.398;2023-06-22T11:10:15;28.40;99.90
54898;DHT22;40800;52.704;6.398;2023-06-22T11:12:40;28.40;99.90
54898;DHT22;40800;52.704;6.398;2023-06-22T11:15:08;28.30;99.90
54898;DHT22;40800;52.704;6.398;2023-06-22T11:17:34;28.20;99.90
54898;DHT22;40800;52.704;6.398;2023-06-22T11:20:00;28.10;99.90
54898;DHT22;40800;52.704;6.398;2023-06-22T11:22:26;28.10;99.90
54898;DHT22;40800;52.704;6.398;2023-06-22T11:24:52;28.20;99.90
54898;DHT22;40800;52.704;6.398;2023-06-22T11:27:17;27.90;99.90
54898;DHT22;40800;52.704;6.398;2023-06-22T11:29:43;27.70;99.90
54898;DHT22;40800;52.704;6.398;2023-06-22T11:32:09;27.60;99.90
54898;DHT22;40800;52.704;6.398;2023-06-22T11:34:34;27.70;99.90
54898;DHT22;40800;52.704;6.398;2023-06-22T11:37:00;27.70;99.90
54898;DHT22;40800;52.704;6.398;2023-06-22T11:39:26;27.60;99.90
54898;DHT22;40800;52.704;6.398;2023-06-22T11:41:51;27.40;99.90
54898;DHT22;40800;52.704;6.398;2023-06-22T11:44:17;27.40;99.90
54898;DHT22;40800;52.704;6.398;2023-06-22T11:46:42;27.50;99.90
54898;DHT22;40800;52.704;6.398;2023-06-22T11:49:08;27.40;99.90
54898;DHT22;40800;52.704;6.398;2023-06-22T11:51:34;27.30;99.90
54898;DHT22;40800;52.704;6.398;2023-06-22T11:53:59;27.30;99.90
54898;DHT22;40800;52.704;6.398;2023-06-22T11:56:25;27.30;99.90
54898;DHT22;40800;52.704;6.398;2023-06-22T11:58:51;27.30;99.90
54898;DHT22;40800;52.704;6.398;2023-06-22T12:01:16;27.30;99.90
54898;DHT22;40800;52.704;6.398;2023-06-22T12:03:42;27.30;99.90
54898;DHT22;40800;52.704;6.398;2023-06-22T12:06:09;27.40;99.90
54898;DHT22;40800;52.704;6.398;2023-06-22T12:08:35;27.40;99.90
54898;DHT22;40800;52.704;6.398;2023-06-22T12:11:00;27.20;99.90
54898;DHT22;40800;52.704;6.398;2023-06-22T12:13:26;27.10;99.90
54898;DHT22;40800;52.704;6.398;2023-06-22T12:15:52;27.10;99.90
54898;DHT22;40800;52.704;6.398;2023-06-22T12:18:18;27.00;99.90
54898;DHT22;40800;52.704;6.398;2023-06-22T12:20:46;27.10;99.90
54898;DHT22;40800;52.704;6.398;2023-06-22T12:23:11;27.20;99.90
54898;DHT22;40800;52.704;6.398;2023-06-22T12:25:37;27.40;99.90
54898;DHT22;40800;52.704;6.398;2023-06-22T12:28:03;27.50;99.90
54898;DHT22;40800;52.704;6.398;2023-06-22T12:30:30;27.70;99.90
54898;DHT22;40800;52.704;6.398;2023-06-22T12:32:56;27.80;99.90
54898;DHT22;40800;52.704;6.398;2023-06-22T12:35:21;27.90;99.90
54898;DHT22;40800;52.704;6.398;2023-06-22T12:37:47;28.00;99.90
54898;DHT22;40800;52.704;6.398;2023-06-22T12:40:12;28.10;99.90
54898;DHT22;40800;52.704;6.398;2023-06-22T12:42:38;28.10;99.90
54898;DHT22;40800;52.704;6.398;2023-06-22T12:45:04;28.00;99.90
54898;DHT22;40800;52.704;6.398;2023-06-22T12:47:30;28.00;99.90
54898;DHT22;40800;52.704;6.398;2023-06-22T12:49:56;27.90;99.90
54898;DHT22;40800;52.704;6.398;2023-06-22T12:52:21;27.80;99.90
54898;DHT22;40800;52.704;6.398;2023-06-22T12:54:48;27.60;99.90
54898;DHT22;40800;52.704;6.398;2023-06-22T12:57:14;27.50;99.90
54898;DHT22;40800;52.704;6.398;2023-06-22T12:59:39;27.40;99.90
54898;DHT22;40800;52.704;6.398;2023-06-22T13:02:05;27.30;99.90
54898;DHT22;40800;52.704;6.398;2023-06-22T13:04:31;27.30;99.90
54898;DHT22;40800;52.704;6.398;2023-06-22T13:06:56;27.30;99.90
54898;DHT22;40800;52.704;6.398;2023-06-22T13:09:22;27.30;99.90
54898;DHT22;40800;52.704;6.398;2023-06-22T13:11:48;27.20;99.90
54898;DHT22;40800;52.704;6.398;2023-06-22T13:14:14;27.20;99.90
54898;DHT22;40800;52.704;6.398;2023-06-22T13:16:41;27.10;99.90
54898;DHT22;40800;52.704;6.398;2023-06-22T13:19:07;27.00;99.90
54898;DHT22;40800;52.704;6.398;2023-06-22T13:21:33;26.90;99.90
54898;DHT22;40800;52.704;6.398;2023-06-22T13:23:59;26.70;99.90
54898;DHT22;40800;52.704;6.398;2023-06-22T13:26:25;26.60;99.90
54898;DHT22;40800;52.704;6.398;2023-06-22T13:28:50;26.50;99.90
54898;DHT22;40800;52.704;6.398;2023-06-22T13:31:16;26.50;99.90
54898;DHT22;40800;52.704;6.398;2023-06-22T13:33:42;26.40;99.90
54898;DHT22;40800;52.704;6.398;2023-06-22T13:36:07;26.40;99.90
54898;DHT22;40800;52.704;6.398;2023-06-22T13:38:35;26.40;99.90
54898;DHT22;40800;52.704;6.398;2023-06-22T13:41:04;26.40;99.90
54898;DHT22;40800;52.704;6.398;2023-06-22T13:43:29;26.30;99.90
54898;DHT22;40800;52.704;6.398;2023-06-22T13:45:55;26.30;99.90
54898;DHT22;40800;52.704;6.398;2023-06-22T13:48:21;26.20;99.90
54898;DHT22;40800;52.704;6.398;2023-06-22T13:50:48;26.20;99.90
54898;DHT22;40800;52.704;6.398;2023-06-22T13:53:14;26.10;99.90
54898;DHT22;40800;52.704;6.398;2023-06-22T13:55:39;26.00;99.90
54898;DHT22;40800;52.704;6.398;2023-06-22T13:58:06;25.90;99.90
54898;DHT22;40800;52.704;6.398;2023-06-22T14:00:32;25.80;99.90
54898;DHT22;40800;52.704;6.398;2023-06-22T14:02:57;25.80;99.90
54898;DHT22;40800;52.704;6.398;2023-06-22T14:05:23;25.70;99.90
54898;DHT22;40800;52.704;6.398;2023-06-22T14:07:49;25.70;99.90
54898;DHT22;40800;52.704;6.398;2023-06-22T14:10:14;25.70;99.90
54898;DHT22;40800;52.704;6.398;2023-06-22T14:12:40;25.70;99.90
54898;DHT22;40800;52.704;6.398;2023-06-22T14:15:06;25.50;99.90
54898;DHT22;40800;52.704;6.398;2023-06-22T14:17:31;25.40;99.90
54898;DHT22;40800;52.704;6.398;2023-06-22T14:19:57;25.40;99.90
54898;DHT22;40800;52.704;6.398;2023-06-22T14:22:23;25.30;99.90
54898;DHT22;40800;52.704;6.398;2023-06-22T14:24:49;25.20;99.90
54898;DHT22;40800;52.704;6.398;2023-06-22T14:27:15;25.10;99.90
54898;DHT22;40800;52.704;6.398;2023-06-22T14:29:41;25.00;1.00
54898;DHT22;40800;52.704;6.398;2023-06-22T14:32:07;25.00;1.00
54898;DHT22;40800;52.704;6.398;2023-06-22T14:34:34;24.80;1.00
54898;DHT22;40800;52.704;6.398;2023-06-22T14:37:02;24.70;1.00
54898;DHT22;40800;52.704;6.398;2023-06-22T14:39:27;24.70;30.00
54898;DHT22;40800;52.704;6.398;2023-06-22T14:41:53;24.60;99.90
54898;DHT22;40800;52.704;6.398;2023-06-22T14:44:19;24.40;99.90
54898;DHT22;40800;52.704;6.398;2023-06-22T14:46:44;24.30;99.90
54898;DHT22;40800;52.704;6.398;2023-06-22T14:49:10;24.20;93.10
54898;DHT22;40800;52.704;6.398;2023-06-22T14:51:36;24.10;1.00
54898;DHT22;40800;52.704;6.398;2023-06-22T14:54:01;24.00;95.60
54898;DHT22;40800;52.704;6.398;2023-06-22T14:56:27;23.80;99.90
54898;DHT22;40800;52.704;6.398;2023-06-22T14:58:52;23.60;99.90
54898;DHT22;40800;52.704;6.398;2023-06-22T15:01:18;23.50;1.00
54898;DHT22;40800;52.704;6.398;2023-06-22T15:03:44;23.40;43.80
54898;DHT22;40800;52.704;6.398;2023-06-22T15:06:10;23.20;99.90
54898;DHT22;40800;52.704;6.398;2023-06-22T15:08:40;23.20;99.90
54898;DHT22;40800;52.704;6.398;2023-06-22T15:11:06;23.10;99.90
54898;DHT22;40800;52.704;6.398;2023-06-22T15:13:32;23.00;99.90
54898;DHT22;40800;52.704;6.398;2023-06-22T15:16:01;23.00;99.90
54898;DHT22;40800;52.704;6.398;2023-06-22T15:18:28;23.00;99.90
54898;DHT22;40800;52.704;6.398;2023-06-22T15:20:53;22.90;99.90
54898;DHT22;40800;52.704;6.398;2023-06-22T15:23:19;22.90;99.90
54898;DHT22;40800;52.704;6.398;2023-06-22T15:25:45;22.90;99.90
54898;DHT22;40800;52.704;6.398;2023-06-22T15:28:12;22.80;99.90
54898;DHT22;40800;52.704;6.398;2023-06-22T15:30:38;22.90;99.90